createdAt,value
2019-05-13T00:01:54.020Z,102583.98
2019-05-13T00:04:27.140Z,102581.31
2019-05-13T00:07:00.569Z,102581.45
2019-05-13T00:09:34.214Z,102586.30
2019-05-13T00:12:07.648Z,102590.66
2019-05-13T00:14:43.310Z,102586.54
2019-05-13T00:17:16.215Z,102585.44
2019-05-13T00:19:49.643Z,102584.18
2019-05-13T00:22:23.539Z,102590.58
2019-05-13T00:24:57.008Z,102588.48
2019-05-13T00:27:30.442Z,102592.36
2019-05-13T00:30:05.711Z,102588.17
2019-05-13T00:32:39.077Z,102588.73
2019-05-13T00:35:14.205Z,102583.80
2019-05-13T00:37:47.691Z,102579.97
2019-05-13T00:40:21.068Z,102577.48
2019-05-13T00:42:54.636Z,102574.28
2019-05-13T00:45:27.981Z,102573.13
2019-05-13T00:48:01.415Z,102574.12
2019-05-13T00:50:34.866Z,102569.77
2019-05-13T00:53:08.418Z,102569.77
2019-05-13T00:55:44.233Z,102569.63
2019-05-13T00:58:17.018Z,102566.07
2019-05-13T01:00:50.422Z,102564.64
2019-05-13T01:03:25.335Z,102560.12
2019-05-13T01:05:58.954Z,102563.73
2019-05-13T01:08:33.817Z,102562.19
2019-05-13T01:11:07.407Z,102557.91
2019-05-13T01:13:43.202Z,102552.81
2019-05-13T01:16:15.936Z,102558.42
2019-05-13T01:18:49.360Z,102558.02
2019-05-13T01:21:23.930Z,102562.73
2019-05-13T01:23:57.460Z,102565.17
2019-05-13T01:26:30.851Z,102561.60
2019-05-13T01:29:04.374Z,102568.30
2019-05-13T01:31:37.734Z,102563.62
2019-05-13T01:34:11.183Z,102565.14
2019-05-13T01:36:44.855Z,102572.36
2019-05-13T01:39:18.301Z,102560.09
2019-05-13T01:41:54.005Z,102569.23
2019-05-13T01:44:26.831Z,102566.86
2019-05-13T01:47:00.224Z,102566.03
2019-05-13T01:49:33.901Z,102567.14
2019-05-13T01:52:07.375Z,102568.03
2019-05-13T01:54:40.774Z,102570.71
2019-05-13T01:57:14.411Z,102575.80
2019-05-13T01:59:48.229Z,102576.17
2019-05-13T02:02:24.089Z,102581.45
2019-05-13T02:04:56.765Z,102582.66
2019-05-13T02:07:30.171Z,102581.24
2019-05-13T02:10:05.509Z,102584.23
2019-05-13T02:12:38.909Z,102578.80
2019-05-13T02:15:14.493Z,102582.45
2019-05-13T02:17:47.573Z,102578.71
2019-05-13T02:20:20.975Z,102578.27
2019-05-13T02:22:54.391Z,102581.69
2019-05-13T02:25:27.787Z,102584.44
2019-05-13T02:28:07.824Z,102583.64
2019-05-13T02:30:36.308Z,102584.75
2019-05-13T02:33:12.913Z,102589.02
2019-05-13T02:35:44.845Z,102594.92
2019-05-13T02:38:24.464Z,102596.98
2019-05-13T02:40:53.849Z,102598.74
2019-05-13T02:43:27.342Z,102596.98
2019-05-13T02:46:04.182Z,102597.59
2019-05-13T02:48:35.895Z,102597.10
2019-05-13T02:51:12.182Z,102597.66
2019-05-13T02:53:44.505Z,102600.64
2019-05-13T02:56:17.934Z,102599.48
2019-05-13T02:58:52.629Z,102602.05
2019-05-13T03:01:26.225Z,102606.74
2019-05-13T03:04:02.751Z,102614.94
2019-05-13T03:06:34.830Z,102607.29
2019-05-13T03:09:08.607Z,102604.11
2019-05-13T03:11:42.545Z,102609.57
2019-05-13T03:14:16.084Z,102605.53
2019-05-13T03:17:03.670Z,102608.90
2019-05-13T03:19:37.143Z,102606.27
2019-05-13T03:22:13.520Z,102608.77
2019-05-13T03:24:45.674Z,102612.53
2019-05-13T03:27:20.526Z,102608.75
2019-05-13T03:29:54.188Z,102611.39
2019-05-13T03:32:35.703Z,102604.09
2019-05-13T03:35:07.594Z,102608.05
2019-05-13T03:37:38.722Z,102609.93
2019-05-13T03:40:13.330Z,102603.94
2019-05-13T03:42:48.978Z,102602.10
2019-05-13T03:45:24.804Z,102610.39
2019-05-13T03:48:03.981Z,102608.34
2019-05-13T03:50:35.544Z,102610.88
2019-05-13T03:53:12.123Z,102604.31
2019-05-13T03:55:44.818Z,102608.61
2019-05-13T03:58:18.723Z,102608.12
2019-05-13T04:00:52.116Z,102613.16
2019-05-13T04:03:25.616Z,102611.19
2019-05-13T04:06:03.248Z,102612.31
2019-05-13T04:08:34.351Z,102625.28
2019-05-13T04:11:07.737Z,102632.56
2019-05-13T04:13:42.974Z,102638.30
2019-05-13T04:16:16.504Z,102653.97
2019-05-13T04:18:53.375Z,102660.51
2019-05-13T04:21:25.184Z,102663.83
2019-05-13T04:23:58.746Z,102667.24
2019-05-13T04:26:32.488Z,102667.20
2019-05-13T04:29:05.935Z,102667.37
2019-05-13T04:31:42.319Z,102664.98
2019-05-13T04:34:14.685Z,102666.87
2019-05-13T04:36:48.216Z,102663.85
2019-05-13T04:39:40.100Z,102662.00
2019-05-13T04:41:57.417Z,102663.29
2019-05-13T04:44:32.341Z,102660.09
2019-05-13T04:47:06.199Z,102665.39
2019-05-13T04:49:42.614Z,102657.33
2019-05-13T04:52:14.870Z,102677.56
2019-05-13T04:54:48.360Z,102655.83
2019-05-13T04:57:22.830Z,102666.15
2019-05-13T04:59:56.431Z,102672.71
2019-05-13T05:02:49.491Z,102677.20
2019-05-13T05:05:45.276Z,102669.35
2019-05-13T05:08:27.673Z,102667.37
2019-05-13T05:11:16.198Z,102658.64
2019-05-13T05:14:12.025Z,102678.55
2019-05-13T05:16:48.661Z,102675.69
2019-05-13T05:19:47.587Z,102671.95
2019-05-13T05:22:51.273Z,102675.22
2019-05-13T05:25:41.634Z,102672.02
2019-05-13T05:28:33.634Z,102673.20
2019-05-13T05:31:18.932Z,102676.22
2019-05-13T05:34:32.357Z,102684.05
2019-05-13T05:37:43.003Z,102681.33
2019-05-13T05:40:30.456Z,102682.18
2019-05-13T05:42:54.489Z,102685.52
2019-05-13T05:45:28.074Z,102682.69
2019-05-13T05:48:04.243Z,102698.91
2019-05-13T05:50:37.995Z,102694.70
2019-05-13T05:53:14.727Z,102692.39
2019-05-13T05:55:51.812Z,102704.03
2019-05-13T05:58:26.809Z,102695.59
2019-05-13T06:01:02.562Z,102694.28
2019-05-13T06:03:38.647Z,102680.84
2019-05-13T06:06:13.910Z,102689.04
2019-05-13T06:08:47.381Z,102687.85
2019-05-13T06:11:22.283Z,102689.22
2019-05-13T06:13:55.986Z,102697.02
2019-05-13T06:16:31.877Z,102686.28
2019-05-13T06:19:04.811Z,102694.16
2019-05-13T06:21:38.415Z,102699.53
2019-05-13T06:24:12.189Z,102687.20
2019-05-13T06:26:46.111Z,102690.55
2019-05-13T06:29:22.061Z,102696.32
2019-05-13T06:31:54.889Z,102692.23
2019-05-13T06:34:28.297Z,102686.80
2019-05-13T06:37:02.178Z,102686.73
2019-05-13T06:39:35.837Z,102686.50
2019-05-13T06:42:11.470Z,102684.72
2019-05-13T06:44:44.461Z,102682.91
2019-05-13T06:47:17.880Z,102685.03
2019-05-13T06:49:51.697Z,102679.23
2019-05-13T06:52:25.201Z,102676.95
2019-05-13T06:54:58.628Z,102676.28
2019-05-13T06:57:32.298Z,102671.04
2019-05-13T07:00:07.163Z,102677.87
2019-05-13T07:02:42.696Z,102680.38
2019-05-13T07:05:15.817Z,102681.61
2019-05-13T07:07:51.318Z,102677.04
2019-05-13T07:10:24.398Z,102675.58
2019-05-13T07:12:57.803Z,102677.55
2019-05-13T07:15:31.547Z,102682.97
2019-05-13T07:18:05.201Z,102677.77
2019-05-13T07:20:38.617Z,102679.19
2019-05-13T07:23:12.439Z,102671.95
2019-05-13T07:25:45.958Z,102671.95
2019-05-13T07:28:21.705Z,102681.05
2019-05-13T07:30:54.518Z,102677.14
2019-05-13T07:33:27.931Z,102689.61
2019-05-13T07:36:03.275Z,102688.99
2019-05-13T07:38:37.167Z,102669.98
2019-05-13T07:41:12.009Z,102681.19
2019-05-13T07:43:46.410Z,102669.25
2019-05-13T07:46:21.814Z,102673.80
2019-05-13T07:48:54.925Z,102674.17
2019-05-13T07:51:28.414Z,102668.63
2019-05-13T07:54:02.366Z,102672.02
2019-05-13T07:56:35.973Z,102677.35
2019-05-13T07:59:12.016Z,102677.72
2019-05-13T08:01:44.570Z,102677.97
2019-05-13T08:04:22.753Z,102682.33
2019-05-13T08:06:53.215Z,102689.93
2019-05-13T08:09:26.692Z,102688.09
2019-05-13T08:12:09.153Z,102687.45
2019-05-13T08:14:35.438Z,102689.30
2019-05-13T08:17:08.797Z,102690.14
2019-05-13T08:19:42.216Z,102683.16
2019-05-13T08:22:15.759Z,102678.66
2019-05-13T08:24:51.887Z,102676.01
2019-05-13T08:27:30.487Z,102672.48
2019-05-13T08:30:01.692Z,102676.48
2019-05-13T08:32:34.654Z,102672.02
2019-05-13T08:35:09.421Z,102664.28
2019-05-13T08:37:43.893Z,102672.75
2019-05-13T08:40:20.079Z,102669.06
2019-05-13T08:42:52.756Z,102662.01
2019-05-13T08:45:26.191Z,102670.02
2019-05-13T08:48:01.774Z,102666.36
2019-05-13T08:50:34.797Z,102656.06
2019-05-13T08:53:08.257Z,102659.55
2019-05-13T08:55:42.545Z,102661.88
2019-05-13T08:58:16.345Z,102656.15
2019-05-13T09:00:52.942Z,102661.18
2019-05-13T09:03:26.598Z,102658.77
2019-05-13T09:06:02.535Z,102653.27
2019-05-13T09:08:35.284Z,102650.44
2019-05-13T09:11:08.708Z,102644.67
2019-05-13T09:13:42.460Z,102651.34
2019-05-13T09:16:15.970Z,102652.70
2019-05-13T09:18:52.037Z,102651.73
2019-05-13T09:21:24.505Z,102642.53
2019-05-13T09:23:57.909Z,102636.78
2019-05-13T09:26:31.738Z,102629.34
2019-05-13T09:29:05.826Z,102639.50
2019-05-13T09:31:41.402Z,102642.13
2019-05-13T09:34:14.475Z,102637.29
2019-05-13T09:36:47.897Z,102629.39
2019-05-13T09:39:21.724Z,102639.50
2019-05-13T09:41:55.221Z,102635.56
2019-05-13T09:44:28.635Z,102633.34
2019-05-13T09:47:02.792Z,102625.42
2019-05-13T09:49:36.242Z,102628.52
2019-05-13T09:52:11.912Z,102629.83
2019-05-13T09:54:44.891Z,102621.05
2019-05-13T09:57:18.309Z,102625.85
2019-05-13T09:59:52.402Z,102625.45
2019-05-13T10:02:25.931Z,102621.89
2019-05-13T10:05:01.949Z,102621.25
2019-05-13T10:07:34.508Z,102626.31
2019-05-13T10:10:09.037Z,102619.27
2019-05-13T10:12:42.751Z,102612.22
2019-05-13T10:15:16.181Z,102611.27
2019-05-13T10:17:52.531Z,102608.19
2019-05-13T10:20:48.590Z,102605.17
2019-05-13T10:23:22.538Z,102608.68
2019-05-13T10:25:58.991Z,102606.48
2019-05-13T10:28:33.038Z,102606.00
2019-05-13T10:31:06.695Z,102604.27
2019-05-13T10:33:42.042Z,102597.20
2019-05-13T10:36:15.388Z,102612.23
2019-05-13T10:38:49.043Z,102612.20
2019-05-13T10:41:22.648Z,102608.12
2019-05-13T10:43:56.048Z,102599.86
2019-05-13T10:46:31.702Z,102601.49
2019-05-13T10:49:04.785Z,102603.93
2019-05-13T10:51:38.174Z,102598.78
2019-05-13T10:54:11.751Z,102602.83
2019-05-13T10:56:45.212Z,102596.15
2019-05-13T10:59:18.692Z,102597.77
2019-05-13T11:01:52.088Z,102595.98
2019-05-13T11:04:25.574Z,102596.18
2019-05-13T11:06:58.967Z,102598.25
2019-05-13T11:09:32.794Z,102585.79
2019-05-13T11:12:08.157Z,102548.03
2019-05-13T11:14:42.215Z,102578.81
2019-05-13T11:17:15.817Z,102573.38
2019-05-13T11:19:49.298Z,102574.02
2019-05-13T11:22:22.758Z,102570.67
2019-05-13T11:24:56.125Z,102573.76
2019-05-13T11:27:32.179Z,102570.21
2019-05-13T11:30:07.708Z,102559.55
2019-05-13T11:32:42.598Z,102566.98
2019-05-13T11:35:16.457Z,102547.91
2019-05-13T11:37:52.190Z,102558.34
2019-05-13T11:40:25.052Z,102551.38
2019-05-13T11:42:58.440Z,102553.48
2019-05-13T11:45:31.930Z,102552.53
2019-05-13T11:48:05.653Z,102546.36
2019-05-13T11:50:42.185Z,102542.29
2019-05-13T11:53:31.205Z,102548.89
2019-05-13T11:55:52.285Z,102520.36
2019-05-13T11:58:25.034Z,102522.25
2019-05-13T12:01:02.578Z,102530.52
2019-05-13T12:03:34.976Z,102526.25
2019-05-13T12:06:08.402Z,102530.70
2019-05-13T12:11:17.004Z,102526.34
2019-05-13T12:13:52.844Z,102513.31
2019-05-13T12:16:25.547Z,102513.31
2019-05-13T12:18:58.998Z,102518.77
2019-05-13T12:21:32.422Z,102507.72
2019-05-13T12:24:10.570Z,102505.99
2019-05-13T12:26:43.407Z,102500.75
2019-05-13T12:29:19.122Z,102493.59
2019-05-13T12:31:52.638Z,102492.27
2019-05-13T12:34:26.304Z,102475.78
2019-05-13T12:37:03.102Z,102483.91
2019-05-13T12:39:34.885Z,102474.80
2019-05-13T12:42:08.313Z,102486.57
2019-05-13T12:44:59.791Z,102482.43
2019-05-13T12:47:17.015Z,102474.17
2019-05-13T12:49:50.491Z,102461.34
2019-05-13T12:52:24.018Z,102477.70
2019-05-13T12:54:57.856Z,102461.91
2019-05-13T12:57:32.431Z,102460.98
2019-05-13T13:00:07.160Z,102454.05
2019-05-13T13:02:40.569Z,102454.05
2019-05-13T13:05:20.034Z,102449.69
2019-05-13T13:08:13.509Z,102446.06
2019-05-13T13:10:24.695Z,102453.18
2019-05-13T13:12:58.105Z,102453.18
2019-05-13T13:15:38.410Z,102446.52
2019-05-13T13:18:06.916Z,102452.22
2019-05-13T13:20:42.122Z,102444.00
2019-05-13T13:23:15.545Z,102448.34
2019-05-13T13:28:24.387Z,102443.09
2019-05-13T13:30:57.769Z,102445.65
2019-05-13T13:33:34.193Z,102450.87
2019-05-13T13:36:06.326Z,102439.05
2019-05-13T13:38:43.678Z,102425.87
2019-05-13T13:41:22.317Z,102438.89
2019-05-13T13:43:53.845Z,102435.63
2019-05-13T13:46:36.944Z,102429.06
2019-05-13T13:49:00.725Z,102422.38
2019-05-13T13:51:34.479Z,102414.97
2019-05-13T13:54:08.147Z,102430.99
2019-05-13T13:56:43.928Z,102430.99
2019-05-13T13:59:16.768Z,102431.50
2019-05-13T14:01:55.068Z,102419.08
2019-05-13T14:04:25.359Z,102418.25
2019-05-13T14:06:31.861Z,102511.08
2019-05-13T14:06:55.936Z,102436.11
2019-05-13T14:09:33.915Z,102401.97
2019-05-13T14:12:07.314Z,102405.45
2019-05-13T14:14:41.557Z,102406.77
2019-05-13T14:17:15.074Z,102404.15
2019-05-13T14:19:48.502Z,102399.55
2019-05-13T14:22:22.007Z,102398.92
2019-05-13T14:24:55.579Z,102397.16
2019-05-13T14:27:31.321Z,102400.33
2019-05-13T14:30:06.104Z,102400.33
2019-05-13T14:32:41.768Z,102385.98
2019-05-13T14:35:14.768Z,102397.88
2019-05-13T14:37:48.166Z,102395.09
2019-05-13T14:40:22.451Z,102389.84
2019-05-13T14:42:56.075Z,102386.86
2019-05-13T14:45:31.827Z,102387.05
2019-05-13T14:48:05.115Z,102376.87
2019-05-13T14:50:38.544Z,102377.97
2019-05-13T14:53:11.934Z,102388.93
2019-05-13T14:55:45.358Z,102383.69
2019-05-13T14:58:21.726Z,102383.38
2019-05-13T15:01:11.219Z,102385.53
2019-05-13T15:03:29.166Z,102373.17
2019-05-13T15:06:02.595Z,102373.17
2019-05-13T15:08:35.981Z,102375.58
2019-05-13T15:11:09.411Z,102373.70
2019-05-13T15:13:42.839Z,102372.87
2019-05-13T15:16:16.263Z,102368.64
2019-05-13T15:18:52.227Z,102376.05
2019-05-13T15:21:24.836Z,102376.05
2019-05-13T15:23:58.224Z,102372.14
2019-05-13T15:26:31.654Z,102372.14
2019-05-13T15:29:05.320Z,102377.34
2019-05-13T15:31:38.822Z,102355.88
2019-05-13T15:34:12.269Z,102366.06
2019-05-13T15:36:45.755Z,102373.84
2019-05-13T15:39:19.181Z,102367.39
2019-05-13T15:41:52.628Z,102366.31
2019-05-13T15:44:26.090Z,102365.70
2019-05-13T15:47:03.907Z,102356.59
2019-05-13T15:49:34.711Z,102369.31
2019-05-13T15:52:08.213Z,102361.98
2019-05-13T15:54:41.686Z,102351.67
2019-05-13T15:57:15.049Z,102357.86
2019-05-13T15:59:48.524Z,102341.47
2019-05-13T16:02:22.765Z,102351.90
2019-05-13T16:05:01.255Z,102344.14
2019-05-13T16:07:31.501Z,102348.21
2019-05-13T16:10:06.971Z,102356.68
2019-05-13T16:12:40.549Z,102353.80
2019-05-13T16:15:15.800Z,102353.21
2019-05-13T16:17:51.935Z,102344.52
2019-05-13T16:20:24.479Z,102349.72
2019-05-13T16:22:58.150Z,102344.13
2019-05-13T16:25:32.575Z,102343.86
2019-05-13T16:28:06.031Z,102345.14
2019-05-13T16:30:41.911Z,102344.25
2019-05-13T16:33:14.577Z,102346.00
2019-05-13T16:35:47.992Z,102353.97
2019-05-13T16:38:22.059Z,102344.61
2019-05-13T16:40:55.511Z,102338.33
2019-05-13T16:43:28.908Z,102350.97
2019-05-13T16:46:02.369Z,102346.45
2019-05-13T16:48:35.773Z,102343.67
2019-05-13T16:51:12.025Z,102343.08
2019-05-13T16:53:44.332Z,102343.48
2019-05-13T16:56:26.905Z,102342.12
2019-05-13T16:58:52.910Z,102346.05
2019-05-13T17:01:26.432Z,102343.77
2019-05-13T17:04:01.854Z,102348.04
2019-05-13T17:06:35.053Z,102341.67
2019-05-13T17:09:08.441Z,102340.46
2019-05-13T17:11:41.885Z,102336.22
2019-05-13T17:14:15.306Z,102343.13
2019-05-13T17:16:48.711Z,102335.89
2019-05-13T17:19:22.127Z,102345.41
2019-05-13T17:21:55.601Z,102334.22
2019-05-13T17:24:31.633Z,102335.63
2019-05-13T17:27:04.317Z,102346.17
2019-05-13T17:29:37.717Z,102340.50
2019-05-13T17:32:11.576Z,102333.36
2019-05-13T17:34:46.050Z,102341.20
2019-05-13T17:37:22.076Z,102344.28
2019-05-13T17:39:55.361Z,102349.63
2019-05-13T17:42:28.815Z,102348.61
2019-05-13T17:45:02.511Z,102346.98
2019-05-13T17:47:35.952Z,102347.47
2019-05-13T17:50:11.519Z,102347.47
2019-05-13T17:52:44.632Z,102344.38
2019-05-13T17:55:18.094Z,102344.02
2019-05-13T17:57:51.631Z,102351.51
2019-05-13T18:00:25.100Z,102350.28
2019-05-13T18:02:58.588Z,102356.50
2019-05-13T18:05:32.006Z,102359.16
2019-05-13T18:08:05.423Z,102359.66
2019-05-13T18:10:38.820Z,102360.16
2019-05-13T18:13:12.746Z,102358.81
2019-05-13T18:15:46.265Z,102355.80
2019-05-13T18:18:21.517Z,102358.94
2019-05-13T18:20:55.048Z,102356.73
2019-05-13T18:23:28.555Z,102358.95
2019-05-13T18:26:02.150Z,102354.11
2019-05-13T18:28:35.606Z,102359.09
2019-05-13T18:31:09.025Z,102363.24
2019-05-13T18:33:42.563Z,102363.24
2019-05-13T18:36:15.931Z,102360.20
2019-05-13T18:38:49.426Z,102360.20
2019-05-13T18:41:22.854Z,102359.77
2019-05-13T18:43:56.384Z,102362.46
2019-05-13T18:46:32.117Z,102360.28
2019-05-13T18:49:04.966Z,102358.98
2019-05-13T18:51:38.373Z,102364.78
2019-05-13T18:54:12.194Z,102358.57
2019-05-13T18:56:46.590Z,102360.78
2019-05-13T18:59:21.427Z,102367.82
2019-05-13T19:01:54.885Z,102361.69
2019-05-13T19:04:28.345Z,102369.61
2019-05-13T19:07:02.508Z,102367.00
2019-05-13T19:09:36.081Z,102372.76
2019-05-13T19:12:11.533Z,102367.91
2019-05-13T19:14:44.649Z,102372.73
2019-05-13T19:17:18.114Z,102371.88
2019-05-13T19:19:51.574Z,102380.69
2019-05-13T19:22:25.067Z,102380.69
2019-05-13T19:24:58.513Z,102370.58
2019-05-13T19:27:32.177Z,102375.41
2019-05-13T19:30:07.308Z,102375.00
2019-05-13T19:32:41.609Z,102376.75
2019-05-13T19:35:15.417Z,102381.16
2019-05-13T19:37:51.411Z,102380.67
2019-05-13T19:40:24.007Z,102386.84
2019-05-13T19:42:57.456Z,102387.70
2019-05-13T19:45:32.249Z,102392.08
2019-05-13T19:48:05.827Z,102383.27
2019-05-13T19:50:41.406Z,102383.26
2019-05-13T19:53:14.385Z,102386.31
2019-05-13T19:55:47.833Z,102387.61
2019-05-13T19:58:21.612Z,102388.92
2019-05-13T20:00:55.245Z,102383.16
2019-05-13T20:03:28.728Z,102387.05
2019-05-13T20:06:02.440Z,102387.91
2019-05-13T20:08:35.838Z,102382.61
2019-05-13T20:11:11.568Z,102387.33
2019-05-13T20:13:44.613Z,102387.30
2019-05-13T20:16:18.106Z,102390.66
2019-05-13T20:18:51.828Z,102394.10
2019-05-13T20:21:25.334Z,102384.81
2019-05-13T20:23:59.242Z,102394.02
2019-05-13T20:26:35.626Z,102385.63
2019-05-13T20:29:09.603Z,102393.47
2019-05-13T20:31:42.989Z,102389.57
2019-05-13T20:34:16.447Z,102389.95
2019-05-13T20:36:51.589Z,102385.58
2019-05-13T20:39:25.153Z,102396.01
2019-05-13T20:42:01.385Z,102393.72
2019-05-13T20:44:34.116Z,102396.28
2019-05-13T20:47:07.547Z,102398.02
2019-05-13T20:49:41.746Z,102397.92
2019-05-13T20:52:15.646Z,102402.70
2019-05-13T20:54:51.130Z,102393.83
2019-05-13T20:57:26.042Z,102396.34
2019-05-13T20:59:59.651Z,102393.70
2019-05-13T21:02:34.963Z,102389.76
2019-05-13T21:05:08.821Z,102401.04
2019-05-13T21:07:42.239Z,102397.05
2019-05-13T21:10:16.201Z,102393.87
2019-05-13T21:12:51.392Z,102392.02
2019-05-13T21:15:24.864Z,102388.86
2019-05-13T21:17:58.282Z,102392.31
2019-05-13T21:20:32.058Z,102390.80
2019-05-13T21:23:05.700Z,102390.75
2019-05-13T21:25:39.179Z,102386.27
2019-05-13T21:28:12.597Z,102387.56
2019-05-13T21:30:46.014Z,102388.47
2019-05-13T21:33:21.930Z,102388.55
2019-05-13T21:35:54.646Z,102390.31
2019-05-13T21:38:28.073Z,102390.47
2019-05-13T21:41:01.611Z,102389.47
2019-05-13T21:43:35.106Z,102392.70
2019-05-13T21:46:08.510Z,102391.21
2019-05-13T21:48:41.926Z,102395.45
2019-05-13T21:51:15.477Z,102390.88
2019-05-13T21:53:48.892Z,102388.48
2019-05-13T21:56:23.265Z,102388.19
2019-05-13T21:58:56.785Z,102390.47
2019-05-13T22:01:31.441Z,102392.19
2019-05-13T22:04:05.251Z,102391.61
2019-05-13T22:06:38.686Z,102391.12
2019-05-13T22:09:12.960Z,102395.08
2019-05-13T22:11:46.459Z,102395.06
2019-05-13T22:14:19.950Z,102393.59
2019-05-13T22:16:56.483Z,102395.87
2019-05-13T22:19:28.487Z,102392.37
2019-05-13T22:22:02.475Z,102390.25
2019-05-13T22:24:36.071Z,102388.94
2019-05-13T22:27:10.947Z,102388.41
2019-05-13T22:29:44.601Z,102386.09
2019-05-13T22:32:18.021Z,102392.08
2019-05-13T22:34:51.431Z,102382.31
2019-05-13T22:37:24.849Z,102380.53
2019-05-13T22:39:58.239Z,102387.50
2019-05-13T22:42:32.185Z,102386.25
2019-05-13T22:45:06.561Z,102386.08
2019-05-13T22:47:41.715Z,102381.34
2019-05-13T22:50:15.604Z,102384.70
2019-05-13T22:52:49.019Z,102384.17
2019-05-13T22:55:22.427Z,102376.70
2019-05-13T22:57:55.851Z,102381.98
2019-05-13T23:00:31.573Z,102381.94
2019-05-13T23:03:04.599Z,102380.64
2019-05-13T23:05:37.979Z,102373.67
2019-05-13T23:08:11.430Z,102376.73
2019-05-13T23:10:44.777Z,102378.14
2019-05-13T23:13:18.208Z,102377.70
2019-05-13T23:15:51.778Z,102379.02
2019-05-13T23:18:25.142Z,102379.84
2019-05-13T23:20:58.556Z,102375.83
2019-05-13T23:23:31.980Z,102373.20
2019-05-13T23:26:05.371Z,102370.15
2019-05-13T23:28:38.795Z,102372.77
2019-05-13T23:31:12.465Z,102373.10
2019-05-13T23:33:45.852Z,102371.35
2019-05-13T23:36:21.105Z,102367.76
2019-05-13T23:38:54.386Z,102363.22
2019-05-13T23:41:27.783Z,102359.43
2019-05-13T23:44:01.468Z,102363.13
2019-05-13T23:46:35.147Z,102361.16
2019-05-13T23:49:08.571Z,102357.56
2019-05-13T23:51:42.025Z,102352.72
2019-05-13T23:54:15.427Z,102345.16
2019-05-13T23:56:48.823Z,102346.53
2019-05-13T23:59:22.245Z,102340.92
